Terminal Aerodrome Forecast
Issued by NWS Cleveland, OH

Home | Current Version | Previous Version | Graphics & Text | Print | Product List | Glossary Off
Versions: 1 2 3 4 5 6 7 8 9 10 11 12 13 14 15 16 17 18 19 20 21 22 23 24 25 26 27 28 29 30

000
FTUS41 KCLE 052110 AAB
TAFCLE
TAF AMD
KCLE 052110Z 0521/0624 02015KT P6SM FEW045
     FM060000 36008KT P6SM SCT045
     FM060700 34005KT P6SM SCT250
     FM061900 30010KT P6SM SCT100 BKN250=

USA.gov is the U.S. government's official web portal to all federal, state and local government web resources and services.